sensor_id;sensor_type;location;lat;lon;timestamp;P1;durP1;ratioP1;P2;durP2;ratioP2
46781;SDS011;32541;46.298;11.506;2023-09-18T00:00:19;7.72;;;6.75;;
46781;SDS011;32541;46.298;11.506;2023-09-18T00:02:46;8.50;;;6.55;;
46781;SDS011;32541;46.298;11.506;2023-09-18T00:05:12;9.88;;;6.35;;
46781;SDS011;32541;46.298;11.506;2023-09-18T00:07:40;9.70;;;6.60;;
46781;SDS011;32541;46.298;11.506;2023-09-18T00:10:07;8.48;;;5.88;;
46781;SDS011;32541;46.298;11.506;2023-09-18T00:12:33;7.60;;;5.95;;
46781;SDS011;32541;46.298;11.506;2023-09-18T00:14:58;9.15;;;6.70;;
46781;SDS011;32541;46.298;11.506;2023-09-18T00:17:23;8.98;;;6.30;;
46781;SDS011;32541;46.298;11.506;2023-09-18T00:19:49;9.95;;;6.47;;
46781;SDS011;32541;46.298;11.506;2023-09-18T00:22:16;14.27;;;7.40;;
46781;SDS011;32541;46.298;11.506;2023-09-18T00:24:42;10.70;;;6.70;;
46781;SDS011;32541;46.298;11.506;2023-09-18T00:27:07;7.53;;;6.20;;
46781;SDS011;32541;46.298;11.506;2023-09-18T00:29:32;9.45;;;6.53;;
46781;SDS011;32541;46.298;11.506;2023-09-18T00:31:58;7.82;;;5.85;;
46781;SDS011;32541;46.298;11.506;2023-09-18T00:34:23;9.48;;;6.13;;
46781;SDS011;32541;46.298;11.506;2023-09-18T00:36:48;9.88;;;6.47;;
46781;SDS011;32541;46.298;11.506;2023-09-18T00:39:14;10.13;;;6.30;;
46781;SDS011;32541;46.298;11.506;2023-09-18T00:41:40;8.07;;;6.13;;
46781;SDS011;32541;46.298;11.506;2023-09-18T00:44:06;10.30;;;5.75;;
46781;SDS011;32541;46.298;11.506;2023-09-18T00:46:31;9.00;;;6.68;;
46781;SDS011;32541;46.298;11.506;2023-09-18T00:48:58;10.65;;;6.63;;
46781;SDS011;32541;46.298;11.506;2023-09-18T00:51:24;8.50;;;5.88;;
46781;SDS011;32541;46.298;11.506;2023-09-18T00:53:49;8.55;;;6.47;;
46781;SDS011;32541;46.298;11.506;2023-09-18T00:56:15;9.52;;;5.93;;
46781;SDS011;32541;46.298;11.506;2023-09-18T00:58:42;11.63;;;6.32;;
46781;SDS011;32541;46.298;11.506;2023-09-18T01:01:10;9.77;;;5.93;;
46781;SDS011;32541;46.298;11.506;2023-09-18T01:03:36;8.32;;;6.35;;
46781;SDS011;32541;46.298;11.506;2023-09-18T01:06:02;10.90;;;6.70;;
46781;SDS011;32541;46.298;11.506;2023-09-18T01:08:28;10.05;;;5.82;;
46781;SDS011;32541;46.298;11.506;2023-09-18T01:11:06;10.50;;;6.47;;
46781;SDS011;32541;46.298;11.506;2023-09-18T01:13:45;7.90;;;6.03;;
46781;SDS011;32541;46.298;11.506;2023-09-18T01:16:32;10.45;;;5.72;;
46781;SDS011;32541;46.298;11.506;2023-09-18T01:19:02;9.05;;;6.32;;
46781;SDS011;32541;46.298;11.506;2023-09-18T01:21:28;9.18;;;6.25;;
46781;SDS011;32541;46.298;11.506;2023-09-18T01:23:54;11.55;;;5.93;;
46781;SDS011;32541;46.298;11.506;2023-09-18T01:26:19;11.18;;;5.65;;
46781;SDS011;32541;46.298;11.506;2023-09-18T01:28:44;11.30;;;5.97;;
46781;SDS011;32541;46.298;11.506;2023-09-18T01:31:10;8.63;;;5.40;;
46781;SDS011;32541;46.298;11.506;2023-09-18T01:33:35;9.65;;;6.15;;
46781;SDS011;32541;46.298;11.506;2023-09-18T01:36:02;8.13;;;6.50;;
46781;SDS011;32541;46.298;11.506;2023-09-18T01:38:29;11.75;;;6.70;;
46781;SDS011;32541;46.298;11.506;2023-09-18T01:40:55;14.60;;;6.20;;
46781;SDS011;32541;46.298;11.506;2023-09-18T01:43:20;8.88;;;5.43;;
46781;SDS011;32541;46.298;11.506;2023-09-18T01:45:46;9.35;;;5.50;;
46781;SDS011;32541;46.298;11.506;2023-09-18T01:48:13;8.38;;;6.25;;
46781;SDS011;32541;46.298;11.506;2023-09-18T01:50:57;10.27;;;6.28;;
46781;SDS011;32541;46.298;11.506;2023-09-18T01:53:22;10.35;;;5.80;;
46781;SDS011;32541;46.298;11.506;2023-09-18T01:55:48;7.50;;;5.20;;
46781;SDS011;32541;46.298;11.506;2023-09-18T01:58:13;15.23;;;6.32;;
46781;SDS011;32541;46.298;11.506;2023-09-18T02:00:39;9.75;;;6.15;;
46781;SDS011;32541;46.298;11.506;2023-09-18T02:03:05;8.20;;;5.70;;
46781;SDS011;32541;46.298;11.506;2023-09-18T02:05:30;13.02;;;5.63;;
46781;SDS011;32541;46.298;11.506;2023-09-18T02:07:55;10.68;;;5.25;;
46781;SDS011;32541;46.298;11.506;2023-09-18T02:10:21;8.07;;;5.00;;
46781;SDS011;32541;46.298;11.506;2023-09-18T02:12:46;10.80;;;5.80;;
46781;SDS011;32541;46.298;11.506;2023-09-18T02:15:12;11.00;;;6.43;;
46781;SDS011;32541;46.298;11.506;2023-09-18T02:17:37;9.93;;;5.93;;
46781;SDS011;32541;46.298;11.506;2023-09-18T02:20:03;12.07;;;5.93;;
46781;SDS011;32541;46.298;11.506;2023-09-18T02:25:02;13.27;;;5.53;;
46781;SDS011;32541;46.298;11.506;2023-09-18T02:27:28;15.93;;;5.72;;
46781;SDS011;32541;46.298;11.506;2023-09-18T02:29:54;9.75;;;5.78;;
46781;SDS011;32541;46.298;11.506;2023-09-18T02:32:19;12.98;;;6.10;;
46781;SDS011;32541;46.298;11.506;2023-09-18T02:34:44;12.98;;;5.70;;
46781;SDS011;32541;46.298;11.506;2023-09-18T02:37:10;11.55;;;5.68;;
46781;SDS011;32541;46.298;11.506;2023-09-18T02:39:35;12.40;;;6.13;;
46781;SDS011;32541;46.298;11.506;2023-09-18T02:42:00;11.60;;;5.80;;
46781;SDS011;32541;46.298;11.506;2023-09-18T02:44:26;11.45;;;6.03;;
46781;SDS011;32541;46.298;11.506;2023-09-18T02:46:51;10.15;;;5.50;;
46781;SDS011;32541;46.298;11.506;2023-09-18T02:49:17;10.23;;;5.55;;
46781;SDS011;32541;46.298;11.506;2023-09-18T02:51:43;7.15;;;5.47;;
46781;SDS011;32541;46.298;11.506;2023-09-18T02:54:08;14.48;;;5.88;;
46781;SDS011;32541;46.298;11.506;2023-09-18T02:56:33;11.30;;;6.07;;
46781;SDS011;32541;46.298;11.506;2023-09-18T02:58:59;9.00;;;5.70;;
46781;SDS011;32541;46.298;11.506;2023-09-18T03:01:24;9.25;;;5.38;;
46781;SDS011;32541;46.298;11.506;2023-09-18T03:03:50;11.05;;;5.90;;
46781;SDS011;32541;46.298;11.506;2023-09-18T03:06:15;13.00;;;6.10;;
46781;SDS011;32541;46.298;11.506;2023-09-18T03:08:41;11.50;;;6.10;;
46781;SDS011;32541;46.298;11.506;2023-09-18T03:11:13;9.63;;;5.63;;
46781;SDS011;32541;46.298;11.506;2023-09-18T03:13:42;14.07;;;6.05;;
46781;SDS011;32541;46.298;11.506;2023-09-18T03:16:10;11.07;;;6.13;;
46781;SDS011;32541;46.298;11.506;2023-09-18T03:18:36;11.40;;;6.13;;
46781;SDS011;32541;46.298;11.506;2023-09-18T03:21:02;9.40;;;5.22;;
46781;SDS011;32541;46.298;11.506;2023-09-18T03:23:27;7.40;;;4.88;;
46781;SDS011;32541;46.298;11.506;2023-09-18T03:25:52;11.25;;;5.80;;
46781;SDS011;32541;46.298;11.506;2023-09-18T03:28:18;9.10;;;5.53;;
46781;SDS011;32541;46.298;11.506;2023-09-18T03:30:43;9.50;;;5.72;;
46781;SDS011;32541;46.298;11.506;2023-09-18T03:33:09;8.35;;;5.65;;
46781;SDS011;32541;46.298;11.506;2023-09-18T03:35:44;11.10;;;5.10;;
46781;SDS011;32541;46.298;11.506;2023-09-18T03:38:11;10.43;;;5.47;;
46781;SDS011;32541;46.298;11.506;2023-09-18T03:40:36;10.05;;;5.55;;
46781;SDS011;32541;46.298;11.506;2023-09-18T03:43:02;13.75;;;5.05;;
46781;SDS011;32541;46.298;11.506;2023-09-18T03:45:27;10.73;;;4.78;;
46781;SDS011;32541;46.298;11.506;2023-09-18T03:47:53;11.35;;;5.97;;
46781;SDS011;32541;46.298;11.506;2023-09-18T03:50:18;8.82;;;5.13;;
46781;SDS011;32541;46.298;11.506;2023-09-18T03:52:44;14.52;;;6.63;;
46781;SDS011;32541;46.298;11.506;2023-09-18T03:55:09;11.63;;;5.32;;
46781;SDS011;32541;46.298;11.506;2023-09-18T03:57:35;11.65;;;5.40;;
46781;SDS011;32541;46.298;11.506;2023-09-18T04:00:02;10.23;;;6.38;;
46781;SDS011;32541;46.298;11.506;2023-09-18T04:02:28;12.63;;;5.72;;
46781;SDS011;32541;46.298;11.506;2023-09-18T04:04:55;16.58;;;5.80;;
46781;SDS011;32541;46.298;11.506;2023-09-18T04:07:20;10.60;;;5.18;;
46781;SDS011;32541;46.298;11.506;2023-09-18T04:09:46;9.73;;;5.22;;
46781;SDS011;32541;46.298;11.506;2023-09-18T04:12:11;14.43;;;5.93;;
46781;SDS011;32541;46.298;11.506;2023-09-18T04:14:37;9.68;;;5.40;;
46781;SDS011;32541;46.298;11.506;2023-09-18T04:17:03;9.85;;;5.22;;
46781;SDS011;32541;46.298;11.506;2023-09-18T04:19:29;8.90;;;5.57;;
46781;SDS011;32541;46.298;11.506;2023-09-18T04:21:55;12.20;;;5.40;;
46781;SDS011;32541;46.298;11.506;2023-09-18T04:24:20;10.15;;;5.35;;
46781;SDS011;32541;46.298;11.506;2023-09-18T04:26:46;13.70;;;5.15;;
46781;SDS011;32541;46.298;11.506;2023-09-18T04:29:12;12.15;;;5.40;;
46781;SDS011;32541;46.298;11.506;2023-09-18T04:31:37;13.00;;;5.32;;
46781;SDS011;32541;46.298;11.506;2023-09-18T04:34:03;11.30;;;5.85;;
46781;SDS011;32541;46.298;11.506;2023-09-18T04:36:29;9.98;;;5.30;;
46781;SDS011;32541;46.298;11.506;2023-09-18T04:38:54;29.50;;;19.13;;
46781;SDS011;32541;46.298;11.506;2023-09-18T04:41:20;39.20;;;24.48;;
46781;SDS011;32541;46.298;11.506;2023-09-18T04:43:45;12.23;;;5.35;;
46781;SDS011;32541;46.298;11.506;2023-09-18T04:46:10;21.10;;;6.00;;
46781;SDS011;32541;46.298;11.506;2023-09-18T04:48:36;15.23;;;5.65;;
46781;SDS011;32541;46.298;11.506;2023-09-18T04:51:02;8.82;;;5.45;;
46781;SDS011;32541;46.298;11.506;2023-09-18T04:53:28;13.25;;;5.68;;
46781;SDS011;32541;46.298;11.506;2023-09-18T04:55:54;12.80;;;5.65;;
46781;SDS011;32541;46.298;11.506;2023-09-18T04:58:20;12.48;;;5.43;;
46781;SDS011;32541;46.298;11.506;2023-09-18T05:00:45;15.73;;;5.78;;
46781;SDS011;32541;46.298;11.506;2023-09-18T05:03:14;15.30;;;5.50;;
46781;SDS011;32541;46.298;11.506;2023-09-18T05:05:39;13.55;;;6.07;;
46781;SDS011;32541;46.298;11.506;2023-09-18T05:08:06;33.67;;;23.23;;
46781;SDS011;32541;46.298;11.506;2023-09-18T05:10:35;11.07;;;6.50;;
46781;SDS011;32541;46.298;11.506;2023-09-18T05:13:01;16.33;;;5.93;;
46781;SDS011;32541;46.298;11.506;2023-09-18T05:15:27;13.18;;;6.05;;
46781;SDS011;32541;46.298;11.506;2023-09-18T05:17:56;17.27;;;7.78;;
46781;SDS011;32541;46.298;11.506;2023-09-18T05:20:23;15.50;;;10.13;;
46781;SDS011;32541;46.298;11.506;2023-09-18T05:22:50;17.02;;;6.70;;
46781;SDS011;32541;46.298;11.506;2023-09-18T05:25:20;12.60;;;7.00;;
46781;SDS011;32541;46.298;11.506;2023-09-18T05:27:47;15.07;;;6.60;;
46781;SDS011;32541;46.298;11.506;2023-09-18T05:30:19;12.48;;;6.97;;
46781;SDS011;32541;46.298;11.506;2023-09-18T05:32:46;14.57;;;6.47;;
46781;SDS011;32541;46.298;11.506;2023-09-18T05:35:13;13.73;;;6.10;;
46781;SDS011;32541;46.298;11.506;2023-09-18T05:37:38;9.90;;;5.15;;
46781;SDS011;32541;46.298;11.506;2023-09-18T05:40:05;13.13;;;5.70;;
46781;SDS011;32541;46.298;11.506;2023-09-18T05:42:34;16.75;;;6.43;;
46781;SDS011;32541;46.298;11.506;2023-09-18T05:45:02;8.23;;;6.20;;
46781;SDS011;32541;46.298;11.506;2023-09-18T05:47:32;18.38;;;7.13;;
46781;SDS011;32541;46.298;11.506;2023-09-18T05:49:58;18.45;;;6.25;;
46781;SDS011;32541;46.298;11.506;2023-09-18T05:52:25;12.73;;;5.68;;
46781;SDS011;32541;46.298;11.506;2023-09-18T05:54:50;14.43;;;5.43;;
46781;SDS011;32541;46.298;11.506;2023-09-18T05:57:16;15.85;;;5.90;;
46781;SDS011;32541;46.298;11.506;2023-09-18T05:59:42;11.30;;;6.30;;
46781;SDS011;32541;46.298;11.506;2023-09-18T06:02:10;13.35;;;5.80;;
46781;SDS011;32541;46.298;11.506;2023-09-18T06:04:35;10.90;;;6.15;;
46781;SDS011;32541;46.298;11.506;2023-09-18T06:07:05;10.15;;;6.03;;
46781;SDS011;32541;46.298;11.506;2023-09-18T06:09:30;10.88;;;5.45;;
46781;SDS011;32541;46.298;11.506;2023-09-18T06:11:56;10.48;;;5.95;;
46781;SDS011;32541;46.298;11.506;2023-09-18T06:14:22;15.77;;;5.85;;
46781;SDS011;32541;46.298;11.506;2023-09-18T06:16:48;15.30;;;5.50;;
46781;SDS011;32541;46.298;11.506;2023-09-18T06:19:13;11.40;;;5.93;;
46781;SDS011;32541;46.298;11.506;2023-09-18T06:21:40;14.02;;;5.68;;
46781;SDS011;32541;46.298;11.506;2023-09-18T06:24:05;11.77;;;5.70;;
46781;SDS011;32541;46.298;11.506;2023-09-18T06:26:31;11.10;;;4.82;;
46781;SDS011;32541;46.298;11.506;2023-09-18T06:28:57;11.48;;;5.32;;
46781;SDS011;32541;46.298;11.506;2023-09-18T06:31:22;11.20;;;5.72;;
46781;SDS011;32541;46.298;11.506;2023-09-18T06:33:48;14.73;;;8.52;;
46781;SDS011;32541;46.298;11.506;2023-09-18T06:36:14;14.23;;;7.70;;
46781;SDS011;32541;46.298;11.506;2023-09-18T06:38:39;18.13;;;6.70;;
46781;SDS011;32541;46.298;11.506;2023-09-18T06:41:06;11.98;;;5.53;;
46781;SDS011;32541;46.298;11.506;2023-09-18T06:43:32;14.23;;;6.53;;
46781;SDS011;32541;46.298;11.506;2023-09-18T06:45:57;15.90;;;6.63;;
46781;SDS011;32541;46.298;11.506;2023-09-18T06:48:23;14.55;;;6.60;;
46781;SDS011;32541;46.298;11.506;2023-09-18T06:50:49;16.98;;;7.18;;
46781;SDS011;32541;46.298;11.506;2023-09-18T06:53:15;17.42;;;7.40;;
46781;SDS011;32541;46.298;11.506;2023-09-18T06:55:40;18.60;;;6.63;;
46781;SDS011;32541;46.298;11.506;2023-09-18T06:58:06;18.42;;;7.80;;
46781;SDS011;32541;46.298;11.506;2023-09-18T07:00:31;22.23;;;9.00;;
46781;SDS011;32541;46.298;11.506;2023-09-18T07:02:57;11.18;;;6.65;;
46781;SDS011;32541;46.298;11.506;2023-09-18T07:05:23;16.35;;;7.10;;
46781;SDS011;32541;46.298;11.506;2023-09-18T07:07:48;16.92;;;6.18;;
46781;SDS011;32541;46.298;11.506;2023-09-18T07:10:13;17.02;;;7.35;;
46781;SDS011;32541;46.298;11.506;2023-09-18T07:12:39;19.23;;;8.98;;
46781;SDS011;32541;46.298;11.506;2023-09-18T07:15:04;15.70;;;6.80;;
46781;SDS011;32541;46.298;11.506;2023-09-18T07:17:31;13.80;;;7.40;;
46781;SDS011;32541;46.298;11.506;2023-09-18T07:19:57;17.90;;;7.18;;
46781;SDS011;32541;46.298;11.506;2023-09-18T07:22:22;15.73;;;6.70;;
46781;SDS011;32541;46.298;11.506;2023-09-18T07:24:48;10.57;;;6.50;;
46781;SDS011;32541;46.298;11.506;2023-09-18T07:27:13;12.55;;;5.28;;
46781;SDS011;32541;46.298;11.506;2023-09-18T07:29:39;10.23;;;5.28;;
46781;SDS011;32541;46.298;11.506;2023-09-18T07:32:05;11.95;;;6.30;;
46781;SDS011;32541;46.298;11.506;2023-09-18T07:34:30;13.50;;;5.97;;
46781;SDS011;32541;46.298;11.506;2023-09-18T07:36:56;11.07;;;6.45;;
46781;SDS011;32541;46.298;11.506;2023-09-18T07:39:21;15.20;;;6.47;;
46781;SDS011;32541;46.298;11.506;2023-09-18T07:41:47;11.65;;;6.50;;
46781;SDS011;32541;46.298;11.506;2023-09-18T07:44:13;11.43;;;6.80;;
46781;SDS011;32541;46.298;11.506;2023-09-18T07:46:43;14.38;;;6.90;;
46781;SDS011;32541;46.298;11.506;2023-09-18T07:49:10;12.35;;;7.07;;
46781;SDS011;32541;46.298;11.506;2023-09-18T07:51:35;10.90;;;6.38;;
46781;SDS011;32541;46.298;11.506;2023-09-18T07:54:01;15.73;;;6.90;;
46781;SDS011;32541;46.298;11.506;2023-09-18T07:56:26;11.85;;;6.35;;
46781;SDS011;32541;46.298;11.506;2023-09-18T07:58:52;15.32;;;7.10;;
46781;SDS011;32541;46.298;11.506;2023-09-18T08:01:17;16.25;;;6.90;;
46781;SDS011;32541;46.298;11.506;2023-09-18T08:03:43;15.27;;;7.15;;
46781;SDS011;32541;46.298;11.506;2023-09-18T08:06:08;13.23;;;6.75;;
46781;SDS011;32541;46.298;11.506;2023-09-18T08:08:33;13.93;;;6.95;;
46781;SDS011;32541;46.298;11.506;2023-09-18T08:11:06;16.42;;;6.93;;
46781;SDS011;32541;46.298;11.506;2023-09-18T08:13:33;15.57;;;7.15;;
46781;SDS011;32541;46.298;11.506;2023-09-18T08:15:59;13.55;;;6.68;;
46781;SDS011;32541;46.298;11.506;2023-09-18T08:18:24;15.93;;;6.70;;
46781;SDS011;32541;46.298;11.506;2023-09-18T08:20:51;11.65;;;6.70;;
46781;SDS011;32541;46.298;11.506;2023-09-18T08:23:17;14.68;;;7.80;;
46781;SDS011;32541;46.298;11.506;2023-09-18T08:25:43;12.80;;;7.03;;
46781;SDS011;32541;46.298;11.506;2023-09-18T08:28:08;11.23;;;7.93;;
46781;SDS011;32541;46.298;11.506;2023-09-18T08:30:34;22.45;;;8.23;;
46781;SDS011;32541;46.298;11.506;2023-09-18T08:32:59;15.43;;;7.57;;
46781;SDS011;32541;46.298;11.506;2023-09-18T08:35:24;14.75;;;7.20;;
46781;SDS011;32541;46.298;11.506;2023-09-18T08:37:54;16.42;;;6.78;;
46781;SDS011;32541;46.298;11.506;2023-09-18T08:40:20;22.88;;;7.03;;
46781;SDS011;32541;46.298;11.506;2023-09-18T08:42:46;10.23;;;6.63;;
46781;SDS011;32541;46.298;11.506;2023-09-18T08:45:26;14.52;;;6.63;;
46781;SDS011;32541;46.298;11.506;2023-09-18T08:47:58;16.20;;;7.20;;
46781;SDS011;32541;46.298;11.506;2023-09-18T08:50:24;15.93;;;6.93;;
46781;SDS011;32541;46.298;11.506;2023-09-18T08:52:50;14.77;;;6.30;;
46781;SDS011;32541;46.298;11.506;2023-09-18T08:55:16;12.20;;;6.00;;
46781;SDS011;32541;46.298;11.506;2023-09-18T08:57:43;15.80;;;6.57;;
46781;SDS011;32541;46.298;11.506;2023-09-18T09:00:11;16.27;;;6.28;;
46781;SDS011;32541;46.298;11.506;2023-09-18T09:02:41;13.27;;;5.65;;
46781;SDS011;32541;46.298;11.506;2023-09-18T09:05:08;10.65;;;6.15;;
46781;SDS011;32541;46.298;11.506;2023-09-18T09:07:34;12.20;;;6.38;;
46781;SDS011;32541;46.298;11.506;2023-09-18T09:10:00;17.02;;;6.82;;
46781;SDS011;32541;46.298;11.506;2023-09-18T09:15:16;15.15;;;7.22;;
46781;SDS011;32541;46.298;11.506;2023-09-18T09:17:42;17.25;;;6.90;;
46781;SDS011;32541;46.298;11.506;2023-09-18T09:20:09;18.90;;;6.30;;
46781;SDS011;32541;46.298;11.506;2023-09-18T09:22:37;14.00;;;5.75;;
46781;SDS011;32541;46.298;11.506;2023-09-18T09:25:05;22.48;;;6.90;;
46781;SDS011;32541;46.298;11.506;2023-09-18T09:27:46;14.77;;;6.10;;
46781;SDS011;32541;46.298;11.506;2023-09-18T09:30:15;15.70;;;6.75;;
46781;SDS011;32541;46.298;11.506;2023-09-18T09:32:43;10.32;;;5.88;;
46781;SDS011;32541;46.298;11.506;2023-09-18T09:35:18;12.15;;;5.60;;
46781;SDS011;32541;46.298;11.506;2023-09-18T09:37:46;12.48;;;5.75;;
46781;SDS011;32541;46.298;11.506;2023-09-18T09:40:13;14.32;;;5.30;;
46781;SDS011;32541;46.298;11.506;2023-09-18T09:42:39;18.55;;;5.97;;
46781;SDS011;32541;46.298;11.506;2023-09-18T09:45:10;14.95;;;6.28;;
46781;SDS011;32541;46.298;11.506;2023-09-18T09:47:38;16.88;;;7.32;;
46781;SDS011;32541;46.298;11.506;2023-09-18T09:50:07;12.88;;;6.22;;
46781;SDS011;32541;46.298;11.506;2023-09-18T09:52:41;10.45;;;5.75;;
46781;SDS011;32541;46.298;11.506;2023-09-18T09:55:30;12.23;;;5.90;;
46781;SDS011;32541;46.298;11.506;2023-09-18T09:57:55;14.20;;;5.57;;
46781;SDS011;32541;46.298;11.506;2023-09-18T10:00:35;12.10;;;6.43;;
46781;SDS011;32541;46.298;11.506;2023-09-18T10:03:16;15.68;;;6.15;;
46781;SDS011;32541;46.298;11.506;2023-09-18T10:05:46;15.15;;;6.55;;
46781;SDS011;32541;46.298;11.506;2023-09-18T10:08:22;14.38;;;6.32;;
46781;SDS011;32541;46.298;11.506;2023-09-18T10:10:55;12.35;;;5.18;;
46781;SDS011;32541;46.298;11.506;2023-09-18T10:14:07;13.73;;;6.45;;
46781;SDS011;32541;46.298;11.506;2023-09-18T10:16:17;12.90;;;5.20;;
46781;SDS011;32541;46.298;11.506;2023-09-18T10:18:47;16.05;;;6.13;;
46781;SDS011;32541;46.298;11.506;2023-09-18T10:24:03;12.30;;;5.53;;
46781;SDS011;32541;46.298;11.506;2023-09-18T10:26:38;11.43;;;6.05;;
46781;SDS011;32541;46.298;11.506;2023-09-18T10:29:12;15.85;;;6.88;;
46781;SDS011;32541;46.298;11.506;2023-09-18T10:31:39;14.38;;;5.40;;
46781;SDS011;32541;46.298;11.506;2023-09-18T10:34:09;17.08;;;6.90;;
46781;SDS011;32541;46.298;11.506;2023-09-18T10:36:36;14.15;;;6.13;;
46781;SDS011;32541;46.298;11.506;2023-09-18T10:39:02;14.65;;;5.85;;
46781;SDS011;32541;46.298;11.506;2023-09-18T10:41:33;11.35;;;5.45;;
46781;SDS011;32541;46.298;11.506;2023-09-18T10:43:59;14.65;;;5.60;;
46781;SDS011;32541;46.298;11.506;2023-09-18T10:46:26;14.55;;;7.50;;
46781;SDS011;32541;46.298;11.506;2023-09-18T10:48:52;17.73;;;5.57;;
46781;SDS011;32541;46.298;11.506;2023-09-18T10:51:20;12.43;;;5.93;;
46781;SDS011;32541;46.298;11.506;2023-09-18T10:53:49;11.68;;;6.13;;
46781;SDS011;32541;46.298;11.506;2023-09-18T10:56:17;14.70;;;5.32;;
46781;SDS011;32541;46.298;11.506;2023-09-18T10:58:45;11.95;;;5.90;;
46781;SDS011;32541;46.298;11.506;2023-09-18T11:01:13;13.02;;;5.53;;
46781;SDS011;32541;46.298;11.506;2023-09-18T11:03:39;14.38;;;4.95;;
46781;SDS011;32541;46.298;11.506;2023-09-18T11:06:07;15.35;;;5.80;;
46781;SDS011;32541;46.298;11.506;2023-09-18T11:08:45;10.05;;;6.03;;
46781;SDS011;32541;46.298;11.506;2023-09-18T11:11:12;15.15;;;6.00;;
46781;SDS011;32541;46.298;11.506;2023-09-18T11:19:16;14.27;;;5.45;;
46781;SDS011;32541;46.298;11.506;2023-09-18T11:21:42;16.23;;;6.32;;
46781;SDS011;32541;46.298;11.506;2023-09-18T11:24:15;16.10;;;5.63;;
46781;SDS011;32541;46.298;11.506;2023-09-18T11:26:42;11.70;;;6.63;;
46781;SDS011;32541;46.298;11.506;2023-09-18T11:29:10;16.08;;;6.57;;
46781;SDS011;32541;46.298;11.506;2023-09-18T11:31:47;13.95;;;5.53;;
46781;SDS011;32541;46.298;11.506;2023-09-18T11:34:19;13.82;;;5.82;;
46781;SDS011;32541;46.298;11.506;2023-09-18T11:36:44;17.25;;;6.25;;
46781;SDS011;32541;46.298;11.506;2023-09-18T11:39:11;12.45;;;5.55;;
46781;SDS011;32541;46.298;11.506;2023-09-18T11:41:37;16.55;;;6.03;;
46781;SDS011;32541;46.298;11.506;2023-09-18T11:46:35;12.57;;;5.72;;
46781;SDS011;32541;46.298;11.506;2023-09-18T11:49:04;19.88;;;7.35;;
46781;SDS011;32541;46.298;11.506;2023-09-18T11:51:37;18.20;;;6.15;;
46781;SDS011;32541;46.298;11.506;2023-09-18T11:54:04;13.57;;;6.75;;
46781;SDS011;32541;46.298;11.506;2023-09-18T11:56:32;17.30;;;6.45;;
46781;SDS011;32541;46.298;11.506;2023-09-18T11:58:58;16.58;;;7.43;;
46781;SDS011;32541;46.298;11.506;2023-09-18T12:01:24;20.75;;;6.70;;
46781;SDS011;32541;46.298;11.506;2023-09-18T12:03:54;13.70;;;6.00;;
46781;SDS011;32541;46.298;11.506;2023-09-18T12:06:20;14.30;;;5.85;;
46781;SDS011;32541;46.298;11.506;2023-09-18T12:08:46;16.17;;;7.03;;
46781;SDS011;32541;46.298;11.506;2023-09-18T12:11:13;16.40;;;7.47;;
46781;SDS011;32541;46.298;11.506;2023-09-18T12:13:42;17.98;;;6.60;;
46781;SDS011;32541;46.298;11.506;2023-09-18T12:16:08;11.20;;;6.68;;
46781;SDS011;32541;46.298;11.506;2023-09-18T12:18:34;16.83;;;6.80;;
46781;SDS011;32541;46.298;11.506;2023-09-18T12:21:05;17.42;;;6.07;;
46781;SDS011;32541;46.298;11.506;2023-09-18T12:23:37;19.65;;;6.50;;
46781;SDS011;32541;46.298;11.506;2023-09-18T12:26:04;16.65;;;7.15;;
46781;SDS011;32541;46.298;11.506;2023-09-18T12:28:32;20.00;;;6.30;;
46781;SDS011;32541;46.298;11.506;2023-09-18T12:31:00;16.15;;;6.03;;
46781;SDS011;32541;46.298;11.506;2023-09-18T12:33:29;11.60;;;6.00;;
46781;SDS011;32541;46.298;11.506;2023-09-18T12:35:58;22.13;;;6.55;;
46781;SDS011;32541;46.298;11.506;2023-09-18T12:38:24;23.58;;;6.82;;
46781;SDS011;32541;46.298;11.506;2023-09-18T12:40:52;21.60;;;6.47;;
46781;SDS011;32541;46.298;11.506;2023-09-18T12:43:19;20.15;;;7.53;;
46781;SDS011;32541;46.298;11.506;2023-09-18T12:45:47;22.20;;;6.80;;
46781;SDS011;32541;46.298;11.506;2023-09-18T12:48:14;21.35;;;7.60;;
46781;SDS011;32541;46.298;11.506;2023-09-18T12:50:40;21.63;;;7.80;;
46781;SDS011;32541;46.298;11.506;2023-09-18T12:53:09;25.80;;;8.65;;
46781;SDS011;32541;46.298;11.506;2023-09-18T12:55:36;20.83;;;8.70;;
46781;SDS011;32541;46.298;11.506;2023-09-18T12:58:02;19.60;;;7.80;;
46781;SDS011;32541;46.298;11.506;2023-09-18T13:00:34;22.42;;;7.75;;
46781;SDS011;32541;46.298;11.506;2023-09-18T13:03:00;16.55;;;7.60;;
46781;SDS011;32541;46.298;11.506;2023-09-18T13:05:29;22.55;;;7.85;;
46781;SDS011;32541;46.298;11.506;2023-09-18T13:08:00;20.55;;;7.20;;
46781;SDS011;32541;46.298;11.506;2023-09-18T13:10:39;27.08;;;7.40;;
46781;SDS011;32541;46.298;11.506;2023-09-18T13:13:18;23.42;;;7.65;;
46781;SDS011;32541;46.298;11.506;2023-09-18T13:15:45;24.92;;;7.80;;
46781;SDS011;32541;46.298;11.506;2023-09-18T13:18:13;30.02;;;7.40;;
46781;SDS011;32541;46.298;11.506;2023-09-18T13:20:41;31.15;;;8.90;;
46781;SDS011;32541;46.298;11.506;2023-09-18T13:23:07;28.88;;;8.57;;
46781;SDS011;32541;46.298;11.506;2023-09-18T13:25:33;28.38;;;8.25;;
46781;SDS011;32541;46.298;11.506;2023-09-18T13:28:01;22.73;;;6.53;;
46781;SDS011;32541;46.298;11.506;2023-09-18T13:30:28;24.33;;;6.85;;
46781;SDS011;32541;46.298;11.506;2023-09-18T13:33:03;21.48;;;6.78;;
46781;SDS011;32541;46.298;11.506;2023-09-18T13:35:31;18.35;;;7.07;;
46781;SDS011;32541;46.298;11.506;2023-09-18T13:37:57;21.83;;;6.80;;
46781;SDS011;32541;46.298;11.506;2023-09-18T13:40:23;21.73;;;9.98;;
46781;SDS011;32541;46.298;11.506;2023-09-18T13:42:49;23.55;;;9.02;;
46781;SDS011;32541;46.298;11.506;2023-09-18T13:45:14;17.88;;;8.52;;
46781;SDS011;32541;46.298;11.506;2023-09-18T13:47:41;22.70;;;8.57;;
46781;SDS011;32541;46.298;11.506;2023-09-18T13:50:07;30.10;;;10.32;;
46781;SDS011;32541;46.298;11.506;2023-09-18T13:52:34;21.52;;;8.27;;
46781;SDS011;32541;46.298;11.506;2023-09-18T13:55:01;28.42;;;8.85;;
46781;SDS011;32541;46.298;11.506;2023-09-18T13:57:30;25.52;;;8.88;;
46781;SDS011;32541;46.298;11.506;2023-09-18T13:59:57;24.35;;;9.75;;
46781;SDS011;32541;46.298;11.506;2023-09-18T14:02:22;32.20;;;8.98;;
46781;SDS011;32541;46.298;11.506;2023-09-18T14:04:52;29.38;;;8.95;;
46781;SDS011;32541;46.298;11.506;2023-09-18T14:07:18;24.33;;;7.70;;
46781;SDS011;32541;46.298;11.506;2023-09-18T14:09:43;27.75;;;8.07;;
46781;SDS011;32541;46.298;11.506;2023-09-18T14:12:11;19.63;;;8.85;;
46781;SDS011;32541;46.298;11.506;2023-09-18T14:14:37;22.95;;;8.23;;
46781;SDS011;32541;46.298;11.506;2023-09-18T14:17:05;26.23;;;8.10;;
46781;SDS011;32541;46.298;11.506;2023-09-18T14:19:31;27.95;;;8.00;;
46781;SDS011;32541;46.298;11.506;2023-09-18T14:21:57;25.48;;;8.68;;
46781;SDS011;32541;46.298;11.506;2023-09-18T14:24:22;28.35;;;8.23;;
46781;SDS011;32541;46.298;11.506;2023-09-18T14:26:53;27.25;;;8.23;;
46781;SDS011;32541;46.298;11.506;2023-09-18T14:29:20;25.17;;;8.00;;
46781;SDS011;32541;46.298;11.506;2023-09-18T14:31:49;18.55;;;10.70;;
46781;SDS011;32541;46.298;11.506;2023-09-18T14:34:15;21.92;;;10.32;;
46781;SDS011;32541;46.298;11.506;2023-09-18T14:36:41;23.05;;;10.60;;
46781;SDS011;32541;46.298;11.506;2023-09-18T14:39:07;21.33;;;10.45;;